createdAt,value
2024-04-06T00:00:07.739Z,14.42
2024-04-06T00:01:07.740Z,14.44
2024-04-06T00:02:07.725Z,14.35
2024-04-06T00:03:07.709Z,14.42
2024-04-06T00:04:07.695Z,14.38
2024-04-06T00:05:07.689Z,14.48
2024-04-06T00:06:07.675Z,14.42
2024-04-06T00:07:07.665Z,14.39
2024-04-06T00:08:13.372Z,14.42
2024-04-06T00:09:07.644Z,14.36
2024-04-06T00:10:07.642Z,14.59
2024-04-06T00:11:07.627Z,14.48
2024-04-06T00:12:07.612Z,14.44
2024-04-06T00:13:07.602Z,14.39
2024-04-06T00:14:07.587Z,14.34
2024-04-06T00:15:07.580Z,14.30
2024-04-06T00:16:07.564Z,14.31
2024-04-06T00:17:07.570Z,14.19
2024-04-06T00:18:07.543Z,14.24
2024-04-06T00:19:07.548Z,14.24
2024-04-06T00:20:07.527Z,14.12
2024-04-06T00:21:07.513Z,14.11
2024-04-06T00:22:07.501Z,14.04
2024-04-06T00:23:07.493Z,14.05
2024-04-06T00:24:07.478Z,14.06
2024-04-06T00:25:07.671Z,14.04
2024-04-06T00:26:07.455Z,14.02
2024-04-06T00:27:07.449Z,14.11
2024-04-06T00:28:07.447Z,14.06
2024-04-06T00:29:07.426Z,14.05
2024-04-06T00:30:07.418Z,14.11
2024-04-06T00:31:07.401Z,14.06
2024-04-06T00:32:07.395Z,13.98
2024-04-06T00:33:07.395Z,14.09
2024-04-06T00:34:07.371Z,14.12
2024-04-06T00:35:07.362Z,14.21
2024-04-06T00:36:07.346Z,14.17
2024-04-06T00:37:07.341Z,14.08
2024-04-06T00:38:07.327Z,14.01
2024-04-06T00:39:07.325Z,13.96
2024-04-06T00:40:07.304Z,13.90
2024-04-06T00:41:07.497Z,13.83
2024-04-06T00:42:07.286Z,13.84
2024-04-06T00:43:07.283Z,13.96
2024-04-06T00:44:07.259Z,13.91
2024-04-06T00:45:07.250Z,13.88
2024-04-06T00:46:07.241Z,13.84
2024-04-06T00:47:07.227Z,13.79
2024-04-06T00:48:07.420Z,13.87
2024-04-06T00:49:07.222Z,13.90
2024-04-06T00:50:07.195Z,13.94
2024-04-06T00:51:07.182Z,13.93
2024-04-06T00:52:07.171Z,13.87
2024-04-06T00:53:07.162Z,13.87
2024-04-06T00:54:07.160Z,13.87
2024-04-06T00:55:07.145Z,13.84
2024-04-06T00:56:07.132Z,13.86
2024-04-06T00:57:07.119Z,13.80
2024-04-06T00:58:07.106Z,13.79
2024-04-06T00:59:07.094Z,13.62
2024-04-06T01:00:07.095Z,13.84
2024-04-06T01:01:07.071Z,13.94
2024-04-06T01:02:07.060Z,14.01
2024-04-06T01:03:07.052Z,14.06
2024-04-06T01:04:07.039Z,14.13
2024-04-06T01:05:07.037Z,14.09
2024-04-06T01:06:07.016Z,14.09
2024-04-06T01:07:07.011Z,14.05
2024-04-06T01:08:06.994Z,13.99
2024-04-06T01:09:06.981Z,14.02
2024-04-06T01:10:06.975Z,13.98
2024-04-06T01:11:06.992Z,13.96
2024-04-06T01:12:06.948Z,13.94
2024-04-06T01:13:06.935Z,14.05
2024-04-06T01:14:06.925Z,14.05
2024-04-06T01:15:06.918Z,13.98
2024-04-06T01:16:06.904Z,13.98
2024-04-06T01:17:06.891Z,13.91
2024-04-06T01:18:06.883Z,13.91
2024-04-06T01:19:06.868Z,13.93
2024-04-06T01:20:06.858Z,13.96
2024-04-06T01:21:06.854Z,14.17
2024-04-06T01:22:06.837Z,14.21
2024-04-06T01:23:06.831Z,14.17
2024-04-06T01:24:06.824Z,14.21
2024-04-06T01:25:06.800Z,14.31
2024-04-06T01:26:06.791Z,14.35
2024-04-06T01:27:06.778Z,14.45
2024-04-06T01:28:06.769Z,14.56
2024-04-06T01:29:06.757Z,14.61
2024-04-06T01:30:06.746Z,14.60
2024-04-06T01:31:06.733Z,14.54
2024-04-06T01:32:06.722Z,14.48
2024-04-06T01:33:06.711Z,14.41
2024-04-06T01:34:06.701Z,14.48
2024-04-06T01:35:06.693Z,14.41
2024-04-06T01:36:06.682Z,14.30
2024-04-06T01:37:06.680Z,14.29
2024-04-06T01:38:06.660Z,14.21
2024-04-06T01:39:06.643Z,14.26
2024-04-06T01:40:06.645Z,14.23
2024-04-06T01:41:06.623Z,14.21
2024-04-06T01:42:06.610Z,14.12
2024-04-06T01:43:06.650Z,14.16
2024-04-06T01:44:06.590Z,14.08
2024-04-06T01:45:06.588Z,13.96
2024-04-06T01:46:06.567Z,13.94
2024-04-06T01:47:06.554Z,13.87
2024-04-06T01:48:06.597Z,13.84
2024-04-06T01:49:06.539Z,13.86
2024-04-06T01:50:06.526Z,13.91
2024-04-06T01:51:06.510Z,14.09
2024-04-06T01:52:06.499Z,14.16
2024-04-06T01:53:06.511Z,14.01
2024-04-06T01:54:06.479Z,13.93
2024-04-06T01:55:06.469Z,14.01
2024-04-06T01:56:06.455Z,13.91
2024-04-06T01:57:06.445Z,13.86
2024-04-06T01:58:06.434Z,13.90
2024-04-06T01:59:06.420Z,13.90
2024-04-06T02:00:06.428Z,13.83
2024-04-06T02:01:06.398Z,13.80
2024-04-06T02:02:06.392Z,13.80
2024-04-06T02:03:06.375Z,13.84
2024-04-06T02:04:06.364Z,13.90
2024-04-06T02:05:06.353Z,13.96
2024-04-06T02:06:06.343Z,13.93
2024-04-06T02:07:06.333Z,13.96
2024-04-06T02:08:06.320Z,13.99
2024-04-06T02:09:06.327Z,14.02
2024-04-06T02:10:06.296Z,14.08
2024-04-06T02:11:06.288Z,13.98
2024-04-06T02:12:06.279Z,13.96
2024-04-06T02:13:06.261Z,13.99
2024-04-06T02:14:06.252Z,13.99
2024-04-06T02:15:06.245Z,13.96
2024-04-06T02:16:06.231Z,13.90
2024-04-06T02:17:06.224Z,13.93
2024-04-06T02:18:06.214Z,13.90
2024-04-06T02:19:06.194Z,13.94
2024-04-06T02:20:06.185Z,13.84
2024-04-06T02:21:06.173Z,13.83
2024-04-06T02:22:06.168Z,13.71
2024-04-06T02:23:06.148Z,13.66
2024-04-06T02:24:06.140Z,13.68
2024-04-06T02:25:06.265Z,13.68
2024-04-06T02:26:06.119Z,13.68
2024-04-06T02:27:06.103Z,13.57
2024-04-06T02:28:06.093Z,13.48
2024-04-06T02:29:06.089Z,13.51
2024-04-06T02:31:06.070Z,13.39
2024-04-06T02:32:06.046Z,13.31
2024-04-06T02:33:06.042Z,13.31
2024-04-06T02:34:06.023Z,13.22
2024-04-06T02:35:06.014Z,13.19
2024-04-06T02:36:06.000Z,13.13
2024-04-06T02:37:06.007Z,12.98
2024-04-06T02:38:05.978Z,13.12
2024-04-06T02:39:05.968Z,13.19
2024-04-06T02:40:05.961Z,13.29
2024-04-06T02:41:05.955Z,13.25
2024-04-06T02:42:05.934Z,13.17
2024-04-06T02:43:05.924Z,13.17
2024-04-06T02:44:05.910Z,13.10
2024-04-06T02:45:05.901Z,12.98
2024-04-06T02:46:05.885Z,12.98
2024-04-06T02:47:05.935Z,13.04
2024-04-06T02:48:05.862Z,13.03
2024-04-06T02:49:05.861Z,12.94
2024-04-06T02:50:05.842Z,12.91
2024-04-06T02:51:05.832Z,12.87
2024-04-06T02:52:05.816Z,12.85
2024-04-06T02:53:05.805Z,12.85
2024-04-06T02:54:05.788Z,12.89
2024-04-06T02:55:05.783Z,12.92
2024-04-06T02:56:05.768Z,12.91
2024-04-06T02:57:05.776Z,12.79
2024-04-06T02:58:05.748Z,12.85
2024-04-06T02:59:05.739Z,12.77
2024-04-06T03:00:05.726Z,12.74
2024-04-06T03:01:05.711Z,12.79
2024-04-06T03:02:05.705Z,12.76
2024-04-06T03:03:05.697Z,12.77
2024-04-06T03:04:05.672Z,12.79
2024-04-06T03:05:05.681Z,12.74
2024-04-06T03:06:05.658Z,12.74
2024-04-06T03:07:05.661Z,12.69
2024-04-06T03:08:05.628Z,12.67
2024-04-06T03:09:05.615Z,12.66
2024-04-06T03:10:05.604Z,12.56
2024-04-06T03:11:05.595Z,12.61
2024-04-06T03:12:05.580Z,12.71
2024-04-06T03:13:05.580Z,12.79
2024-04-06T03:14:05.555Z,12.79
2024-04-06T03:15:05.562Z,12.89
2024-04-06T03:16:05.538Z,12.92
2024-04-06T03:17:05.523Z,12.84
2024-04-06T03:18:05.515Z,12.77
2024-04-06T03:19:05.498Z,12.74
2024-04-06T03:20:05.486Z,12.67
2024-04-06T03:21:05.476Z,12.73
2024-04-06T03:22:05.461Z,12.66
2024-04-06T03:23:05.466Z,12.56
2024-04-06T03:24:05.440Z,12.56
2024-04-06T03:25:05.428Z,12.59
2024-04-06T03:26:05.415Z,12.58
2024-04-06T03:27:05.405Z,12.59
2024-04-06T03:28:05.391Z,12.67
2024-04-06T03:29:05.386Z,12.66
2024-04-06T03:30:05.365Z,12.56
2024-04-06T03:31:05.355Z,12.49
2024-04-06T03:32:05.342Z,12.41
2024-04-06T03:33:05.332Z,12.41
2024-04-06T03:34:05.328Z,12.38
2024-04-06T03:35:05.309Z,12.40
2024-04-06T03:37:05.279Z,12.38
2024-04-06T03:38:05.274Z,12.44
2024-04-06T03:39:05.260Z,12.37
2024-04-06T03:40:05.248Z,12.41
2024-04-06T03:42:05.225Z,12.30
2024-04-06T03:43:05.210Z,12.31
2024-04-06T03:44:05.203Z,12.38
2024-04-06T03:45:05.202Z,12.21
2024-04-06T03:46:05.172Z,12.23
2024-04-06T03:47:05.163Z,12.22
2024-04-06T03:48:05.199Z,12.23
2024-04-06T03:49:05.137Z,12.13
2024-04-06T03:50:05.124Z,12.04
2024-04-06T03:51:05.115Z,12.04
2024-04-06T03:52:05.099Z,12.04
2024-04-06T03:54:05.077Z,12.11
2024-04-06T03:55:05.062Z,12.03
2024-04-06T03:56:05.054Z,12.01
2024-04-06T03:57:05.049Z,12.01
2024-04-06T03:58:05.033Z,12.22
2024-04-06T03:59:05.015Z,12.07
2024-04-06T04:00:05.012Z,12.22
2024-04-06T04:01:05.002Z,12.31
2024-04-06T04:02:04.981Z,12.40
2024-04-06T04:03:04.964Z,12.46
2024-04-06T04:04:04.955Z,12.52
2024-04-06T04:05:04.942Z,12.44
2024-04-06T04:06:04.934Z,12.37
2024-04-06T04:07:04.917Z,12.48
2024-04-06T04:08:04.905Z,12.51
2024-04-06T04:09:04.897Z,12.52
2024-04-06T04:10:04.881Z,12.46
2024-04-06T04:11:04.868Z,12.54
2024-04-06T04:12:04.856Z,12.49
2024-04-06T04:13:04.844Z,12.51
2024-04-06T04:14:04.831Z,12.55
2024-04-06T04:15:04.816Z,12.59
2024-04-06T04:16:04.811Z,12.63
2024-04-06T04:17:04.800Z,12.52
2024-04-06T04:18:04.783Z,12.44
2024-04-06T04:19:04.775Z,12.26
2024-04-06T04:20:04.766Z,12.25
2024-04-06T04:21:04.743Z,12.05
2024-04-06T04:22:04.735Z,12.19
2024-04-06T04:23:04.718Z,12.08
2024-04-06T04:24:04.731Z,12.15
2024-04-06T04:25:04.694Z,12.01
2024-04-06T04:26:04.682Z,12.11
2024-04-06T04:27:04.676Z,12.15
2024-04-06T04:28:04.668Z,12.22
2024-04-06T04:29:04.646Z,12.23
2024-04-06T04:30:04.634Z,12.18
2024-04-06T04:31:04.625Z,12.12
2024-04-06T04:32:04.620Z,12.22
2024-04-06T04:33:04.605Z,12.15
2024-04-06T04:34:04.582Z,12.15
2024-04-06T04:35:04.574Z,12.23
2024-04-06T04:36:04.561Z,12.05
2024-04-06T04:37:04.548Z,12.05
2024-04-06T04:38:04.537Z,11.98
2024-04-06T04:39:04.532Z,11.94
2024-04-06T04:40:04.517Z,11.84
2024-04-06T04:41:04.497Z,11.81
2024-04-06T04:42:04.488Z,11.90
2024-04-06T04:43:04.472Z,11.85
2024-04-06T04:44:15.401Z,11.78
2024-04-06T04:45:04.508Z,11.82
2024-04-06T04:46:04.440Z,11.67
2024-04-06T04:47:04.434Z,11.79
2024-04-06T04:48:04.413Z,11.78
2024-04-06T04:49:04.407Z,11.72
2024-04-06T04:50:04.394Z,11.70
2024-04-06T04:51:04.376Z,11.66
2024-04-06T04:52:04.362Z,11.66
2024-04-06T04:53:04.356Z,11.63
2024-04-06T04:54:04.340Z,11.62
2024-04-06T04:55:04.335Z,11.62
2024-04-06T04:56:04.313Z,11.62
2024-04-06T04:57:04.303Z,11.49
2024-04-06T04:58:04.350Z,11.46
2024-04-06T04:59:04.271Z,11.49
2024-04-06T05:00:04.266Z,11.49
2024-04-06T05:01:04.267Z,11.46
2024-04-06T05:02:04.245Z,11.44
2024-04-06T05:03:04.223Z,11.41
2024-04-06T05:04:04.227Z,11.41
2024-04-06T05:05:04.209Z,11.48
2024-04-06T05:06:04.185Z,11.48
2024-04-06T05:07:04.194Z,11.45
2024-04-06T05:08:04.163Z,11.57
2024-04-06T05:09:04.151Z,11.48
2024-04-06T05:10:04.146Z,11.53
2024-04-06T05:11:04.209Z,11.66
2024-04-06T05:12:04.114Z,11.62
2024-04-06T05:13:04.105Z,11.48
2024-04-06T05:14:04.094Z,11.46
2024-04-06T05:15:04.080Z,11.48
2024-04-06T05:17:04.059Z,11.48
2024-04-06T05:18:04.036Z,11.44
2024-04-06T05:19:04.026Z,11.53
2024-04-06T05:20:04.013Z,11.44
2024-04-06T05:21:04.021Z,11.57
2024-04-06T05:22:03.987Z,11.49
2024-04-06T05:23:03.978Z,11.48
2024-04-06T05:24:03.979Z,11.53
2024-04-06T05:25:03.943Z,11.60
2024-04-06T05:26:03.937Z,11.59
2024-04-06T05:27:03.946Z,11.63
2024-04-06T05:28:03.910Z,11.78
2024-04-06T05:29:03.893Z,11.79
2024-04-06T05:30:03.911Z,11.75
2024-04-06T05:31:03.879Z,11.85
2024-04-06T05:32:03.864Z,11.81
2024-04-06T05:33:03.847Z,11.85
2024-04-06T05:34:03.845Z,11.87
2024-04-06T05:35:03.824Z,11.94
2024-04-06T05:36:03.834Z,11.96
2024-04-06T05:37:03.811Z,12.04
2024-04-06T05:38:03.792Z,11.96
2024-04-06T05:39:03.781Z,11.97
2024-04-06T05:40:03.760Z,12.01
2024-04-06T05:41:03.749Z,12.00
2024-04-06T05:42:03.757Z,12.04
2024-04-06T05:43:03.721Z,12.04
2024-04-06T05:44:07.524Z,12.00
2024-04-06T05:45:03.696Z,12.08
2024-04-06T05:46:03.697Z,12.12
2024-04-06T05:47:03.669Z,12.22
2024-04-06T05:48:03.677Z,12.33
2024-04-06T05:49:03.648Z,12.49
2024-04-06T05:50:03.650Z,12.61
2024-04-06T05:51:03.650Z,12.66
2024-04-06T05:52:03.613Z,12.76
2024-04-06T05:53:03.610Z,12.87
2024-04-06T05:54:03.589Z,12.96
2024-04-06T05:55:03.625Z,13.12
2024-04-06T05:56:03.568Z,13.27
2024-04-06T05:57:03.551Z,13.36
2024-04-06T05:58:03.540Z,13.62
2024-04-06T05:59:03.522Z,13.72
2024-04-06T06:00:03.517Z,13.80
2024-04-06T06:01:03.500Z,13.94
2024-04-06T06:02:03.495Z,14.06
2024-04-06T06:03:03.478Z,14.01
2024-04-06T06:04:03.476Z,14.12
2024-04-06T06:05:03.510Z,14.36
2024-04-06T06:06:03.447Z,14.44
2024-04-06T06:07:03.439Z,14.48
2024-04-06T06:08:03.425Z,14.57
2024-04-06T06:09:03.438Z,14.53
2024-04-06T06:10:03.401Z,14.80
2024-04-06T06:11:03.402Z,14.85
2024-04-06T06:12:03.398Z,14.94
2024-04-06T06:13:03.364Z,14.87
2024-04-06T06:14:03.362Z,15.03
2024-04-06T06:15:03.346Z,15.07
2024-04-06T06:16:03.340Z,15.09
2024-04-06T06:17:03.333Z,15.20
2024-04-06T06:18:03.689Z,15.18
2024-04-06T06:19:03.308Z,15.34
2024-04-06T06:20:03.292Z,15.46
2024-04-06T06:21:03.276Z,15.40
2024-04-06T06:22:03.271Z,15.52
2024-04-06T06:23:03.279Z,15.55
2024-04-06T06:24:03.249Z,15.58
2024-04-06T06:25:03.288Z,15.70
2024-04-06T06:26:03.226Z,15.71
2024-04-06T06:27:03.215Z,15.74
2024-04-06T06:28:03.408Z,15.85
2024-04-06T06:29:03.192Z,15.89
2024-04-06T06:30:03.234Z,15.91
2024-04-06T06:31:03.174Z,15.91
2024-04-06T06:32:03.166Z,15.92
2024-04-06T06:33:03.156Z,15.88
2024-04-06T06:34:03.145Z,15.78
2024-04-06T06:35:03.131Z,15.84
2024-04-06T06:38:03.117Z,15.89
2024-04-06T06:41:03.085Z,15.88
2024-04-06T06:42:03.059Z,15.92
2024-04-06T06:43:03.049Z,16.03
2024-04-06T06:44:03.044Z,15.99
2024-04-06T06:45:03.030Z,16.04
2024-04-06T06:46:03.028Z,16.16
2024-04-06T06:47:03.007Z,16.18
2024-04-06T06:48:02.999Z,16.17
2024-04-06T06:49:02.990Z,16.16
2024-04-06T06:50:02.998Z,16.23
2024-04-06T06:51:02.967Z,16.41
2024-04-06T06:52:02.964Z,16.40
2024-04-06T06:53:02.956Z,16.47
2024-04-06T06:54:02.945Z,16.45
2024-04-06T06:55:02.933Z,16.54
2024-04-06T06:56:02.930Z,16.51
2024-04-06T06:57:02.962Z,16.50
2024-04-06T06:58:02.927Z,16.50
2024-04-06T06:59:02.891Z,16.57
2024-04-06T07:01:02.878Z,16.65
2024-04-06T07:02:02.868Z,16.57
2024-04-06T07:03:02.902Z,16.52
2024-04-06T07:04:02.843Z,16.60
2024-04-06T07:05:02.829Z,16.65
2024-04-06T07:06:02.828Z,16.72
2024-04-06T07:07:07.432Z,16.69
2024-04-06T07:08:02.808Z,16.75
2024-04-06T07:09:03.130Z,16.81
2024-04-06T07:10:02.788Z,16.90
2024-04-06T07:11:02.821Z,16.96
2024-04-06T07:12:02.773Z,16.96
2024-04-06T07:13:02.773Z,17.06
2024-04-06T07:14:02.757Z,17.07
2024-04-06T07:15:02.741Z,17.18
2024-04-06T07:16:02.731Z,17.28
2024-04-06T07:17:02.727Z,17.25
2024-04-06T07:18:02.738Z,17.32
2024-04-06T07:19:02.711Z,17.33
2024-04-06T07:20:02.711Z,17.51
2024-04-06T07:21:02.695Z,17.53
2024-04-06T07:22:02.687Z,17.55
2024-04-06T07:23:02.868Z,17.68
2024-04-06T07:25:02.690Z,17.76
2024-04-06T07:26:02.637Z,17.79
2024-04-06T07:27:02.650Z,17.96
2024-04-06T07:28:02.628Z,18.01
2024-04-06T07:29:02.721Z,17.99
2024-04-06T07:30:02.602Z,18.02
2024-04-06T07:31:02.596Z,17.99
2024-04-06T07:32:02.591Z,18.04
2024-04-06T07:33:02.583Z,18.01
2024-04-06T07:34:02.565Z,18.07
2024-04-06T07:35:02.563Z,18.05
2024-04-06T07:36:02.567Z,18.09
2024-04-06T07:37:02.546Z,18.19
2024-04-06T07:38:02.537Z,18.23
2024-04-06T07:40:02.559Z,18.20
2024-04-06T07:41:02.511Z,18.25
2024-04-06T07:42:02.503Z,18.21
2024-04-06T07:43:02.497Z,18.29
2024-04-06T07:44:02.524Z,18.29
2024-04-06T07:45:02.485Z,18.32
2024-04-06T07:46:02.665Z,18.34
2024-04-06T07:47:02.464Z,18.39
2024-04-06T07:48:02.449Z,18.42
2024-04-06T07:49:02.452Z,18.46
2024-04-06T07:50:02.485Z,18.49
2024-04-06T07:51:02.430Z,18.49
2024-04-06T07:52:02.425Z,18.49
2024-04-06T07:53:02.419Z,18.57
2024-04-06T07:54:02.404Z,18.62
2024-04-06T07:55:02.404Z,18.59
2024-04-06T07:56:02.441Z,18.60
2024-04-06T07:57:02.408Z,18.51
2024-04-06T07:58:02.376Z,18.60
2024-04-06T07:59:02.363Z,18.57
2024-04-06T08:00:02.356Z,18.50
2024-04-06T08:01:02.420Z,18.44
2024-04-06T08:02:02.359Z,18.39
2024-04-06T08:03:02.331Z,18.46
2024-04-06T08:04:02.323Z,18.41
2024-04-06T08:05:02.331Z,18.38
2024-04-06T08:06:02.306Z,18.29
2024-04-06T08:07:04.540Z,18.23
2024-04-06T08:08:02.290Z,18.23
2024-04-06T08:09:02.290Z,18.23
2024-04-06T08:10:02.290Z,18.10
2024-04-06T08:11:02.275Z,18.10
2024-04-06T08:12:02.267Z,18.20
2024-04-06T08:13:02.254Z,18.38
2024-04-06T08:14:13.586Z,18.41
2024-04-06T08:15:02.235Z,18.46
2024-04-06T08:16:02.230Z,18.51
2024-04-06T08:17:02.226Z,18.66
2024-04-06T08:18:02.211Z,18.68
2024-04-06T08:19:02.202Z,18.83
2024-04-06T08:20:02.191Z,18.93
2024-04-06T08:21:02.200Z,19.02
2024-04-06T08:22:02.178Z,19.02
2024-04-06T08:23:02.171Z,18.96
2024-04-06T08:24:02.162Z,19.02
2024-04-06T08:25:02.151Z,19.10
2024-04-06T08:26:02.145Z,19.13
2024-04-06T08:27:02.140Z,19.17
2024-04-06T08:28:02.124Z,19.31
2024-04-06T08:29:02.133Z,19.42
2024-04-06T08:30:02.117Z,19.49
2024-04-06T08:31:02.107Z,19.50
2024-04-06T08:32:02.108Z,19.62
2024-04-06T08:33:02.915Z,19.67
2024-04-06T08:34:02.089Z,19.67
2024-04-06T08:35:02.075Z,19.78
2024-04-06T08:36:02.066Z,19.87
2024-04-06T08:37:02.062Z,19.87
2024-04-06T08:38:02.060Z,19.90
2024-04-06T08:39:02.049Z,19.94
2024-04-06T08:40:02.079Z,19.94
2024-04-06T08:41:02.033Z,20.01
2024-04-06T08:42:02.044Z,19.98
2024-04-06T08:43:02.017Z,20.16
2024-04-06T08:44:02.020Z,20.30
2024-04-06T08:45:02.008Z,20.46
2024-04-06T08:46:01.997Z,20.53
2024-04-06T08:47:01.994Z,20.56
2024-04-06T08:48:01.977Z,20.64
2024-04-06T08:49:01.983Z,20.72
2024-04-06T08:50:01.991Z,20.88
2024-04-06T08:51:01.961Z,20.93
2024-04-06T08:52:01.954Z,20.82
2024-04-06T08:53:01.948Z,20.94
2024-04-06T08:54:01.942Z,21.09
2024-04-06T08:55:01.935Z,21.21
2024-04-06T08:56:01.926Z,21.33
2024-04-06T08:57:01.931Z,21.30
2024-04-06T08:58:01.909Z,21.31
2024-04-06T08:59:01.905Z,21.40
2024-04-06T09:00:01.962Z,21.45
2024-04-06T09:01:01.914Z,21.56
2024-04-06T09:02:01.897Z,21.51
2024-04-06T09:03:01.881Z,21.59
2024-04-06T09:04:01.872Z,21.51
2024-04-06T09:05:01.892Z,21.52
2024-04-06T09:06:01.870Z,21.58
2024-04-06T09:07:01.855Z,21.66
2024-04-06T09:08:01.878Z,21.71
2024-04-06T09:09:01.846Z,21.86
2024-04-06T09:10:01.838Z,21.83
2024-04-06T09:11:01.854Z,21.93
2024-04-06T09:12:01.829Z,21.89
2024-04-06T09:13:01.822Z,21.89
2024-04-06T09:14:01.812Z,21.77
2024-04-06T09:15:01.810Z,21.75
2024-04-06T09:16:01.804Z,21.91
2024-04-06T09:17:01.792Z,21.90
2024-04-06T09:18:01.790Z,21.86
2024-04-06T09:19:01.784Z,21.90
2024-04-06T09:20:01.795Z,21.98
2024-04-06T09:21:01.799Z,21.99
2024-04-06T09:22:01.771Z,22.02
2024-04-06T09:23:01.783Z,21.99
2024-04-06T09:24:01.760Z,21.89
2024-04-06T09:25:01.752Z,21.90
2024-04-06T09:26:01.750Z,21.91
2024-04-06T09:27:01.746Z,22.06
2024-04-06T09:28:01.741Z,22.19
2024-04-06T09:29:01.722Z,22.30
2024-04-06T09:30:01.747Z,22.42
2024-04-06T09:31:01.721Z,22.38
2024-04-06T09:32:01.721Z,22.41
2024-04-06T09:33:01.711Z,22.52
2024-04-06T09:34:01.701Z,22.52
2024-04-06T09:35:01.692Z,22.63
2024-04-06T09:36:01.706Z,22.61
2024-04-06T09:37:01.700Z,22.67
2024-04-06T09:38:01.679Z,22.70
2024-04-06T09:39:01.701Z,22.81
2024-04-06T09:40:01.679Z,22.86
2024-04-06T09:41:01.674Z,23.00
2024-04-06T09:42:01.662Z,22.94
2024-04-06T09:43:01.661Z,22.96
2024-04-06T09:44:01.666Z,22.91
2024-04-06T09:45:01.636Z,23.01
2024-04-06T09:46:01.647Z,23.00
2024-04-06T09:47:01.637Z,22.93
2024-04-06T09:48:01.649Z,22.97
2024-04-06T09:49:01.626Z,23.03
2024-04-06T09:50:01.619Z,22.79
2024-04-06T09:51:01.615Z,22.85
2024-04-06T09:52:01.610Z,22.94
2024-04-06T09:53:01.627Z,22.89
2024-04-06T09:54:01.603Z,22.91
2024-04-06T09:55:01.602Z,23.01
2024-04-06T09:56:01.589Z,23.03
2024-04-06T09:57:01.580Z,23.06
2024-04-06T09:58:01.582Z,23.06
2024-04-06T09:59:01.574Z,23.12
2024-04-06T10:00:01.621Z,23.19
2024-04-06T10:01:01.559Z,23.18
2024-04-06T10:02:01.558Z,23.19
2024-04-06T10:03:01.556Z,23.22
2024-04-06T10:04:01.557Z,23.26
2024-04-06T10:05:01.744Z,23.25
2024-04-06T10:08:01.534Z,23.29
2024-04-06T10:09:01.539Z,23.34
2024-04-06T10:10:01.524Z,23.35
2024-04-06T10:11:01.557Z,23.38
2024-04-06T10:12:01.516Z,23.44
2024-04-06T10:13:01.520Z,23.44
2024-04-06T10:14:01.510Z,23.47
2024-04-06T10:15:01.504Z,23.53
2024-04-06T10:16:01.553Z,23.47
2024-04-06T10:17:01.492Z,23.45
2024-04-06T10:18:01.490Z,23.41
2024-04-06T10:19:01.485Z,23.44
2024-04-06T10:20:01.515Z,23.38
2024-04-06T10:21:01.475Z,23.26
2024-04-06T10:22:01.473Z,23.29
2024-04-06T10:23:01.468Z,23.22
2024-04-06T10:24:01.465Z,23.21
2024-04-06T10:25:01.481Z,23.25
2024-04-06T10:26:01.706Z,23.19
2024-04-06T10:27:01.451Z,23.35
2024-04-06T10:28:01.463Z,23.26
2024-04-06T10:29:01.442Z,23.37
2024-04-06T10:30:01.459Z,23.35
2024-04-06T10:31:01.431Z,23.35
2024-04-06T10:32:01.436Z,23.37
2024-04-06T10:33:01.431Z,23.29
2024-04-06T10:34:01.435Z,23.37
2024-04-06T10:35:01.416Z,23.31
2024-04-06T10:36:01.420Z,23.31
2024-04-06T10:37:02.015Z,23.26
2024-04-06T10:38:01.405Z,23.31
2024-04-06T10:39:01.400Z,23.34
2024-04-06T10:40:01.396Z,23.44
2024-04-06T10:41:01.406Z,23.44
2024-04-06T10:42:01.388Z,23.59
2024-04-06T10:43:03.786Z,23.63
2024-04-06T10:44:01.382Z,23.67
2024-04-06T10:45:01.406Z,23.71
2024-04-06T10:46:01.423Z,23.82
2024-04-06T10:47:01.370Z,23.94
2024-04-06T10:48:01.403Z,23.99
2024-04-06T10:49:02.954Z,24.04
2024-04-06T10:50:01.356Z,24.16
2024-04-06T10:51:01.359Z,24.21
2024-04-06T10:52:01.348Z,24.29
2024-04-06T10:53:01.341Z,24.31
2024-04-06T10:54:01.372Z,24.36
2024-04-06T10:55:01.358Z,24.41
2024-04-06T10:56:01.336Z,24.52
2024-04-06T10:57:01.346Z,24.59
2024-04-06T10:58:01.334Z,24.60
2024-04-06T10:59:01.320Z,24.63
2024-04-06T11:00:01.319Z,24.71
2024-04-06T11:01:01.313Z,24.71
2024-04-06T11:02:01.316Z,24.71
2024-04-06T11:03:01.309Z,24.84
2024-04-06T11:04:01.318Z,24.92
2024-04-06T11:05:01.299Z,24.98
2024-04-06T11:06:01.299Z,24.93
2024-04-06T11:07:01.304Z,24.94
2024-04-06T11:08:01.319Z,24.87
2024-04-06T11:09:01.293Z,24.92
2024-04-06T11:10:01.298Z,24.97
2024-04-06T11:11:01.293Z,25.07
2024-04-06T11:12:01.286Z,25.05
2024-04-06T11:13:01.318Z,25.08
2024-04-06T11:14:01.279Z,25.07
2024-04-06T11:15:01.262Z,25.12
2024-04-06T11:16:01.280Z,25.16
2024-04-06T11:17:01.298Z,25.23
2024-04-06T11:18:01.255Z,25.07
2024-04-06T11:19:01.246Z,25.14
2024-04-06T11:20:01.253Z,25.26
2024-04-06T11:21:01.251Z,25.23
2024-04-06T11:22:01.244Z,25.36
2024-04-06T11:23:01.257Z,25.44
2024-04-06T11:24:01.239Z,25.30
2024-04-06T11:25:01.231Z,25.42
2024-04-06T11:26:01.231Z,25.48
2024-04-06T11:27:01.238Z,25.53
2024-04-06T11:28:01.224Z,25.60
2024-04-06T11:29:01.240Z,25.63
2024-04-06T11:30:04.320Z,25.83
2024-04-06T11:31:01.215Z,25.72
2024-04-06T11:32:01.220Z,25.89
2024-04-06T11:33:01.207Z,26.00
2024-04-06T11:34:01.218Z,26.04
2024-04-06T11:35:01.208Z,25.97
2024-04-06T11:36:01.199Z,26.04
2024-04-06T11:37:01.195Z,26.04
2024-04-06T11:38:01.200Z,26.11
2024-04-06T11:39:01.398Z,26.19
2024-04-06T11:40:01.188Z,26.16
2024-04-06T11:41:01.186Z,25.97
2024-04-06T11:42:01.183Z,25.96
2024-04-06T11:43:01.178Z,25.93
2024-04-06T11:44:01.185Z,25.86
2024-04-06T11:45:01.182Z,25.96
2024-04-06T11:46:01.180Z,25.96
2024-04-06T11:48:01.165Z,26.11
2024-04-06T11:49:01.175Z,26.04
2024-04-06T11:50:01.183Z,26.08
2024-04-06T11:51:01.173Z,25.94
2024-04-06T11:52:01.169Z,26.00
2024-04-06T11:53:01.158Z,26.09
2024-04-06T11:54:01.189Z,26.19
2024-04-06T11:55:01.163Z,26.20
2024-04-06T11:56:01.146Z,26.20
2024-04-06T11:57:01.198Z,26.27
2024-04-06T11:58:01.144Z,26.44
2024-04-06T11:59:01.160Z,26.36
2024-04-06T12:00:01.135Z,26.42
2024-04-06T12:01:01.160Z,26.44
2024-04-06T12:02:01.159Z,26.39
2024-04-06T12:03:01.134Z,26.47
2024-04-06T12:04:01.137Z,26.54
2024-04-06T12:05:01.133Z,26.53
2024-04-06T12:06:01.120Z,26.44
2024-04-06T12:07:01.181Z,26.51
2024-04-06T12:08:01.123Z,26.60
2024-04-06T12:09:01.124Z,26.65
2024-04-06T12:10:01.113Z,26.61
2024-04-06T12:11:01.116Z,26.61
2024-04-06T12:12:01.114Z,26.64
2024-04-06T12:13:01.126Z,26.64
2024-04-06T12:14:01.112Z,26.73
2024-04-06T12:15:01.110Z,26.83
2024-04-06T12:16:01.112Z,26.84
2024-04-06T12:17:01.124Z,26.78
2024-04-06T12:18:01.105Z,26.71
2024-04-06T12:19:01.351Z,26.54
2024-04-06T12:20:01.113Z,26.50
2024-04-06T12:21:01.096Z,26.54
2024-04-06T12:22:01.107Z,26.57
2024-04-06T12:23:01.095Z,26.61
2024-04-06T12:24:01.091Z,26.73
2024-04-06T12:25:01.085Z,26.88
2024-04-06T12:26:01.123Z,26.96
2024-04-06T12:27:01.090Z,26.93
2024-04-06T12:28:01.087Z,26.96
2024-04-06T12:29:01.088Z,27.02
2024-04-06T12:30:01.078Z,27.03
2024-04-06T12:31:01.078Z,27.05
2024-04-06T12:32:01.072Z,27.03
2024-04-06T12:33:01.087Z,27.06
2024-04-06T12:34:01.071Z,27.05
2024-04-06T12:35:01.092Z,27.12
2024-04-06T12:36:01.086Z,27.23
2024-04-06T12:37:01.071Z,27.18
2024-04-06T12:38:01.061Z,27.21
2024-04-06T12:39:01.078Z,27.31
2024-04-06T12:40:01.065Z,27.27
2024-04-06T12:41:01.063Z,27.42
2024-04-06T12:42:01.063Z,27.40
2024-04-06T12:43:01.058Z,27.53
2024-04-06T12:44:01.053Z,27.58
2024-04-06T12:45:01.060Z,27.61
2024-04-06T12:46:01.046Z,27.49
2024-04-06T12:47:01.072Z,27.53
2024-04-06T12:48:01.053Z,27.48
2024-04-06T12:49:01.062Z,27.59
2024-04-06T12:50:01.064Z,27.69
2024-04-06T12:51:01.051Z,27.71
2024-04-06T12:52:01.040Z,27.66
2024-04-06T12:53:01.041Z,27.65
2024-04-06T12:54:01.037Z,27.61
2024-04-06T12:55:01.049Z,27.63
2024-04-06T12:56:01.111Z,27.62
2024-04-06T12:57:01.037Z,27.59
2024-04-06T12:58:01.035Z,27.58
2024-04-06T12:59:01.053Z,27.71
2024-04-06T13:00:01.117Z,27.66
2024-04-06T13:01:01.083Z,27.69
2024-04-06T13:02:01.042Z,27.83
2024-04-06T13:03:01.026Z,27.88
2024-04-06T13:04:05.528Z,27.86
2024-04-06T13:05:01.066Z,27.78
2024-04-06T13:06:01.085Z,27.84
2024-04-06T13:07:01.139Z,27.90